createdAt,value
2023-04-22T00:00:15.597Z,3.80
2023-04-22T00:02:42.319Z,4.38
2023-04-22T00:05:10.024Z,4.25
2023-04-22T00:07:36.553Z,4.18
2023-04-22T00:10:03.249Z,3.72
2023-04-22T00:12:29.782Z,5.05
2023-04-22T00:14:56.292Z,5.45
2023-04-22T00:17:22.872Z,5.68
2023-04-22T00:19:49.393Z,6.80
2023-04-22T00:22:15.885Z,5.88
2023-04-22T00:24:42.592Z,6.35
2023-04-22T00:27:09.095Z,5.43
2023-04-22T00:29:35.843Z,5.30
2023-04-22T00:32:02.550Z,4.93
2023-04-22T00:34:29.176Z,4.57
2023-04-22T00:36:55.802Z,6.10
2023-04-22T00:39:22.446Z,4.38
2023-04-22T00:41:49.996Z,4.95
2023-04-22T00:44:18.141Z,4.85
2023-04-22T00:46:45.252Z,4.63
2023-04-22T00:49:11.812Z,4.93
2023-04-22T00:51:38.377Z,5.15
2023-04-22T00:54:05.103Z,5.57
2023-04-22T00:56:33.512Z,6.78
2023-04-22T00:59:00.133Z,6.18
2023-04-22T01:01:27.076Z,6.07
2023-04-22T01:03:54.302Z,6.72
2023-04-22T01:06:23.841Z,7.20
2023-04-22T01:08:50.602Z,6.80
2023-04-22T01:11:17.122Z,6.13
2023-04-22T01:13:43.603Z,6.88
2023-04-22T01:16:10.540Z,6.63
2023-04-22T01:18:37.354Z,7.32
2023-04-22T01:21:04.358Z,7.78
2023-04-22T01:23:30.949Z,7.03
2023-04-22T01:25:57.676Z,7.35
2023-04-22T01:28:24.892Z,7.13
2023-04-22T01:30:52.102Z,7.05
2023-04-22T01:33:18.871Z,7.18
2023-04-22T01:35:45.784Z,7.50
2023-04-22T01:38:13.157Z,8.32
2023-04-22T01:40:40.120Z,7.85
2023-04-22T01:43:06.789Z,7.55
2023-04-22T01:45:33.984Z,9.18
2023-04-22T01:48:00.689Z,8.85
2023-04-22T01:50:27.327Z,9.18
2023-04-22T01:52:53.909Z,9.60
2023-04-22T01:55:20.442Z,9.23
2023-04-22T01:57:46.978Z,9.48
2023-04-22T02:00:13.803Z,9.32
2023-04-22T02:02:40.466Z,9.68
2023-04-22T02:05:07.927Z,9.38
2023-04-22T02:07:34.621Z,8.75
2023-04-22T02:10:01.176Z,8.02
2023-04-22T02:12:27.663Z,8.25
2023-04-22T02:14:54.185Z,8.27
2023-04-22T02:17:20.693Z,9.20
2023-04-22T02:19:47.286Z,8.50
2023-04-22T02:22:13.844Z,7.80
2023-04-22T02:24:40.307Z,7.45
2023-04-22T02:27:06.897Z,8.35
2023-04-22T02:29:33.442Z,8.07
2023-04-22T02:32:00.214Z,8.23
2023-04-22T02:34:27.021Z,8.70
2023-04-22T02:36:53.588Z,8.10
2023-04-22T02:39:20.245Z,8.07
2023-04-22T02:41:46.773Z,8.27
2023-04-22T02:44:13.295Z,7.47
2023-04-22T02:46:39.892Z,7.38
2023-04-22T02:49:06.490Z,7.30
2023-04-22T02:51:33.166Z,7.75
2023-04-22T02:53:59.722Z,8.32
2023-04-22T02:56:26.232Z,7.28
2023-04-22T02:58:52.768Z,7.45
2023-04-22T03:01:19.315Z,7.78
2023-04-22T03:03:46.127Z,7.97
2023-04-22T03:06:12.753Z,7.65
2023-04-22T03:08:39.286Z,8.13
2023-04-22T03:11:05.918Z,7.05
2023-04-22T03:13:32.419Z,7.43
2023-04-22T03:15:58.906Z,8.13
2023-04-22T03:18:25.380Z,7.10
2023-04-22T03:20:51.909Z,7.07
2023-04-22T03:23:18.448Z,7.78
2023-04-22T03:25:45.034Z,7.55
2023-04-22T03:28:11.620Z,6.78
2023-04-22T03:30:38.169Z,7.85
2023-04-22T03:33:04.809Z,7.40
2023-04-22T03:35:31.390Z,7.82
2023-04-22T03:37:57.928Z,7.15
2023-04-22T03:40:24.454Z,6.80
2023-04-22T03:42:50.966Z,7.53
2023-04-22T03:45:17.499Z,7.47
2023-04-22T03:47:44.067Z,7.32
2023-04-22T03:50:11.012Z,7.32
2023-04-22T03:52:37.539Z,6.50
2023-04-22T03:55:04.303Z,7.43
2023-04-22T03:57:30.767Z,7.40
2023-04-22T03:59:57.266Z,6.95
2023-04-22T04:02:23.882Z,7.10
2023-04-22T04:04:50.704Z,7.40
2023-04-22T04:07:17.567Z,8.60
2023-04-22T04:09:44.080Z,7.68
2023-04-22T04:12:10.567Z,8.00
2023-04-22T04:14:37.065Z,7.50
2023-04-22T04:17:03.577Z,7.13
2023-04-22T04:19:30.152Z,6.72
2023-04-22T04:21:56.651Z,7.15
2023-04-22T04:24:23.143Z,7.35
2023-04-22T04:26:49.695Z,7.28
2023-04-22T04:29:16.257Z,7.15
2023-04-22T04:31:42.918Z,6.43
2023-04-22T04:34:09.597Z,6.50
2023-04-22T04:36:36.270Z,7.03
2023-04-22T04:39:02.903Z,6.65
2023-04-22T04:41:29.390Z,6.25
2023-04-22T04:43:55.902Z,7.15
2023-04-22T04:46:22.402Z,6.65
2023-04-22T04:48:48.940Z,7.65
2023-04-22T04:51:15.956Z,8.63
2023-04-22T04:53:42.642Z,8.00
2023-04-22T04:56:09.163Z,7.80
2023-04-22T04:58:35.634Z,8.63
2023-04-22T05:01:02.170Z,9.02
2023-04-22T05:03:28.844Z,8.95
2023-04-22T05:05:56.299Z,8.77
2023-04-22T05:08:22.783Z,8.32
2023-04-22T05:10:49.355Z,8.38
2023-04-22T05:13:15.860Z,8.63
2023-04-22T05:15:42.414Z,7.68
2023-04-22T05:18:08.986Z,6.93
2023-04-22T05:20:36.223Z,7.10
2023-04-22T05:23:02.919Z,7.18
2023-04-22T05:25:29.456Z,6.75
2023-04-22T05:27:56.058Z,6.15
2023-04-22T05:30:22.550Z,6.70
2023-04-22T05:32:51.448Z,7.30
2023-04-22T05:35:18.110Z,5.65
2023-04-22T05:37:44.590Z,6.90
2023-04-22T05:40:11.303Z,5.03
2023-04-22T05:42:37.881Z,5.20
2023-04-22T05:45:04.761Z,5.38
2023-04-22T05:47:31.345Z,4.82
2023-04-22T05:49:57.870Z,4.72
2023-04-22T05:52:24.440Z,5.18
2023-04-22T05:54:50.949Z,4.50
2023-04-22T05:57:17.509Z,15.13
2023-04-22T05:59:44.030Z,25.33
2023-04-22T06:02:13.181Z,27.38
2023-04-22T06:04:41.302Z,19.52
2023-04-22T06:07:08.168Z,38.35
2023-04-22T06:09:34.741Z,34.25
2023-04-22T06:12:01.274Z,22.13
2023-04-22T06:14:27.995Z,7.00
2023-04-22T06:16:54.496Z,5.60
2023-04-22T06:19:20.973Z,4.95
2023-04-22T06:21:47.549Z,4.32
2023-04-22T06:24:14.026Z,5.30
2023-04-22T06:26:40.545Z,4.88
2023-04-22T06:29:07.098Z,4.20
2023-04-22T06:31:33.847Z,4.20
2023-04-22T06:34:00.393Z,4.43
2023-04-22T06:36:29.715Z,4.68
2023-04-22T06:38:57.008Z,4.20
2023-04-22T06:41:23.744Z,4.00
2023-04-22T06:43:50.281Z,4.07
2023-04-22T06:46:17.539Z,3.85
2023-04-22T06:48:44.072Z,3.72
2023-04-22T06:51:10.629Z,4.22
2023-04-22T06:53:37.101Z,3.47
2023-04-22T06:56:04.395Z,3.38
2023-04-22T06:58:30.861Z,3.33
2023-04-22T07:00:57.387Z,3.25
2023-04-22T07:03:24.226Z,3.85
2023-04-22T07:05:50.931Z,2.92
2023-04-22T07:08:17.498Z,3.55
2023-04-22T07:10:44.000Z,3.17
2023-04-22T07:13:10.484Z,3.38
2023-04-22T07:15:36.998Z,3.20
2023-04-22T07:18:03.639Z,2.88
2023-04-22T07:20:30.118Z,3.17
2023-04-22T07:22:56.584Z,3.05
2023-04-22T07:25:23.070Z,3.10
2023-04-22T07:27:49.595Z,4.47
2023-04-22T07:30:16.143Z,2.90
2023-04-22T07:32:42.710Z,4.20
2023-04-22T07:35:09.501Z,5.35
2023-04-22T07:37:36.078Z,2.80
2023-04-22T07:40:02.597Z,3.05
2023-04-22T07:42:29.160Z,3.30
2023-04-22T07:44:55.658Z,3.92
2023-04-22T07:47:22.173Z,3.40
2023-04-22T07:49:48.676Z,4.07
2023-04-22T07:52:15.201Z,8.57
2023-04-22T07:54:41.675Z,3.13
2023-04-22T07:57:08.158Z,3.58
2023-04-22T07:59:34.633Z,3.28
2023-04-22T08:02:01.178Z,4.65
2023-04-22T08:04:28.045Z,2.78
2023-04-22T08:06:54.805Z,2.38
2023-04-22T08:09:21.357Z,2.53
2023-04-22T08:11:47.863Z,15.00
2023-04-22T08:14:14.384Z,14.23
2023-04-22T08:16:42.856Z,2.70
2023-04-22T08:19:09.347Z,2.67
2023-04-22T08:21:35.857Z,2.40
2023-04-22T08:24:02.751Z,2.70
2023-04-22T08:26:29.442Z,2.40
2023-04-22T08:28:55.981Z,4.72
2023-04-22T08:31:22.744Z,2.47
2023-04-22T08:33:49.345Z,5.20
2023-04-22T08:36:15.942Z,2.40
2023-04-22T08:38:42.648Z,2.40
2023-04-22T08:41:10.157Z,1.95
2023-04-22T08:43:36.710Z,3.58
2023-04-22T08:46:03.609Z,4.70
2023-04-22T08:48:30.304Z,5.80
2023-04-22T08:50:58.579Z,6.28
2023-04-22T08:53:26.531Z,6.30
2023-04-22T08:55:56.596Z,7.22
2023-04-22T08:58:24.002Z,8.23
2023-04-22T09:00:50.919Z,2.00
2023-04-22T09:03:18.332Z,2.20
2023-04-22T09:05:46.296Z,2.78
2023-04-22T09:08:14.287Z,13.80
2023-04-22T09:10:43.856Z,2.20
2023-04-22T09:13:13.798Z,2.30
2023-04-22T09:15:40.343Z,2.42
2023-04-22T09:18:09.663Z,2.15
2023-04-22T09:20:36.185Z,2.13
2023-04-22T09:23:04.409Z,2.13
2023-04-22T09:25:33.393Z,1.88
2023-04-22T09:27:59.974Z,2.15
2023-04-22T09:30:34.203Z,2.05
2023-04-22T09:33:02.951Z,2.00
2023-04-22T09:35:31.625Z,2.33
2023-04-22T09:38:00.113Z,2.17
2023-04-22T09:40:27.633Z,2.10
2023-04-22T09:42:56.263Z,2.20
2023-04-22T09:45:34.072Z,2.03
2023-04-22T09:48:08.286Z,2.10
2023-04-22T09:50:35.232Z,2.28
2023-04-22T09:53:07.158Z,1.98
2023-04-22T09:55:37.045Z,1.88
2023-04-22T09:58:11.186Z,2.40
2023-04-22T10:00:42.668Z,2.40
2023-04-22T10:03:10.927Z,2.30
2023-04-22T10:05:37.856Z,2.10
2023-04-22T10:08:05.363Z,1.95
2023-04-22T10:10:32.580Z,2.20
2023-04-22T10:13:00.198Z,2.30
2023-04-22T10:15:31.632Z,2.13
2023-04-22T10:17:59.677Z,2.05
2023-04-22T10:20:29.155Z,1.90
2023-04-22T10:22:56.621Z,1.75
2023-04-22T10:25:24.742Z,1.80
2023-04-22T10:28:04.870Z,2.10
2023-04-22T10:30:35.263Z,2.00
2023-04-22T10:33:20.437Z,2.00
2023-04-22T10:36:05.660Z,2.10
2023-04-22T10:38:40.162Z,1.98
2023-04-22T10:41:13.891Z,2.70
2023-04-22T10:43:41.818Z,2.20
2023-04-22T10:46:28.322Z,2.20
2023-04-22T10:48:57.437Z,1.80
2023-04-22T10:51:45.584Z,2.20
2023-04-22T10:54:29.570Z,2.00
2023-04-22T10:57:09.356Z,1.98
2023-04-22T10:59:50.479Z,2.20
2023-04-22T11:02:18.233Z,1.70
2023-04-22T11:04:45.270Z,4.47
2023-04-22T11:07:20.777Z,4.05
2023-04-22T11:09:52.458Z,1.90
2023-04-22T11:12:37.266Z,3.78
2023-04-22T11:15:09.941Z,2.50
2023-04-22T11:17:37.960Z,2.38
2023-04-22T11:20:06.538Z,2.60
2023-04-22T11:22:37.098Z,2.20
2023-04-22T11:25:05.564Z,2.35
2023-04-22T11:27:32.602Z,2.50
2023-04-22T11:30:03.324Z,2.60
2023-04-22T11:32:30.348Z,2.65
2023-04-22T11:34:57.865Z,2.70
2023-04-22T11:37:24.862Z,3.33
2023-04-22T11:42:22.703Z,2.70
2023-04-22T11:44:50.395Z,3.22
2023-04-22T11:47:17.340Z,2.72
2023-04-22T11:49:55.567Z,2.70
2023-04-22T11:52:22.126Z,3.58
2023-04-22T11:54:48.643Z,2.13
2023-04-22T11:57:15.214Z,2.80
2023-04-22T11:59:42.641Z,2.72
2023-04-22T12:02:09.963Z,2.70
2023-04-22T12:04:40.108Z,2.45
2023-04-22T12:07:06.973Z,2.00
2023-04-22T12:09:34.212Z,1.80
2023-04-22T12:12:03.790Z,2.22
2023-04-22T12:14:36.954Z,2.33
2023-04-22T12:17:04.586Z,1.77
2023-04-22T12:19:31.376Z,2.13
2023-04-22T12:21:58.031Z,1.70
2023-04-22T12:24:28.321Z,2.05
2023-04-22T12:26:55.023Z,2.20
2023-04-22T12:29:30.934Z,1.30
2023-04-22T12:31:57.438Z,2.05
2023-04-22T12:34:23.963Z,1.92
2023-04-22T12:36:50.540Z,1.40
2023-04-22T12:39:17.124Z,1.70
2023-04-22T12:41:43.600Z,1.92
2023-04-22T12:44:10.130Z,1.80
2023-04-22T12:46:36.786Z,1.80
2023-04-22T12:49:03.295Z,1.60
2023-04-22T12:51:29.803Z,1.50
2023-04-22T12:53:56.297Z,1.75
2023-04-22T12:56:22.827Z,1.70
2023-04-22T12:58:49.324Z,1.48
2023-04-22T13:01:15.893Z,1.70
2023-04-22T13:03:42.552Z,1.50
2023-04-22T13:06:09.195Z,1.70
2023-04-22T13:08:35.727Z,1.40
2023-04-22T13:11:02.272Z,1.30
2023-04-22T13:13:28.788Z,1.45
2023-04-22T13:15:55.696Z,1.48
2023-04-22T13:18:22.864Z,1.48
2023-04-22T13:20:49.399Z,1.48
2023-04-22T13:23:15.943Z,1.40
2023-04-22T13:25:42.495Z,1.38
2023-04-22T13:28:09.011Z,1.38
2023-04-22T13:30:36.224Z,1.33
2023-04-22T13:33:02.843Z,1.70
2023-04-22T13:35:29.497Z,1.50
2023-04-22T13:37:56.182Z,1.83
2023-04-22T13:40:22.679Z,1.58
2023-04-22T13:42:49.289Z,1.92
2023-04-22T13:45:15.785Z,1.50
2023-04-22T13:47:42.346Z,1.73
2023-04-22T13:50:09.285Z,1.60
2023-04-22T13:52:35.888Z,1.80
2023-04-22T13:55:05.989Z,1.73
2023-04-22T13:57:32.511Z,2.08
2023-04-22T13:59:59.219Z,1.70
2023-04-22T14:02:25.855Z,1.60
2023-04-22T14:04:52.460Z,1.60
2023-04-22T14:07:19.091Z,1.27
2023-04-22T14:09:45.587Z,1.58
2023-04-22T14:12:12.150Z,1.63
2023-04-22T14:14:38.630Z,1.65
2023-04-22T14:17:05.244Z,1.40
2023-04-22T14:19:31.861Z,1.00
2023-04-22T14:21:58.388Z,1.10
2023-04-22T14:24:25.360Z,1.30
2023-04-22T14:26:52.256Z,1.40
2023-04-22T14:29:18.820Z,0.88
2023-04-22T14:31:45.584Z,0.90
2023-04-22T14:34:12.135Z,0.90
2023-04-22T14:36:38.629Z,0.82
2023-04-22T14:39:05.127Z,0.98
2023-04-22T14:41:31.746Z,1.00
2023-04-22T14:43:58.328Z,0.73
2023-04-22T14:46:24.896Z,0.88
2023-04-22T14:48:51.377Z,0.90
2023-04-22T14:51:17.993Z,1.08
2023-04-22T14:53:44.551Z,1.02
2023-04-22T14:56:11.026Z,1.10
2023-04-22T14:58:37.691Z,0.90
2023-04-22T15:01:05.204Z,0.85
2023-04-22T15:03:33.652Z,1.00
2023-04-22T15:06:00.321Z,1.10
2023-04-22T15:08:26.894Z,0.93
2023-04-22T15:10:53.425Z,1.20
2023-04-22T15:13:19.927Z,1.10
2023-04-22T15:15:46.529Z,1.02
2023-04-22T15:18:13.111Z,0.90
2023-04-22T15:20:40.225Z,0.88
2023-04-22T15:23:06.736Z,0.93
2023-04-22T15:25:33.305Z,0.60
2023-04-22T15:27:59.848Z,0.90
2023-04-22T15:30:26.486Z,0.80
2023-04-22T15:32:53.014Z,1.10
2023-04-22T15:35:19.645Z,1.05
2023-04-22T15:37:46.182Z,1.00
2023-04-22T15:40:12.733Z,1.00
2023-04-22T15:42:39.205Z,1.20
2023-04-22T15:45:06.462Z,1.13
2023-04-22T15:47:34.145Z,1.40
2023-04-22T15:50:00.648Z,1.17
2023-04-22T15:52:27.146Z,1.17
2023-04-22T15:54:53.693Z,1.40
2023-04-22T15:57:20.152Z,1.30
2023-04-22T15:59:49.522Z,1.52
2023-04-22T16:02:18.216Z,1.20
2023-04-22T16:04:44.946Z,1.10
2023-04-22T16:07:11.535Z,1.83
2023-04-22T16:09:38.259Z,1.50
2023-04-22T16:12:05.045Z,1.80
2023-04-22T16:14:31.570Z,1.60
2023-04-22T16:16:58.155Z,1.48
2023-04-22T16:19:24.766Z,1.52
2023-04-22T16:21:51.307Z,1.65
2023-04-22T16:24:17.782Z,1.48
2023-04-22T16:26:44.300Z,1.95
2023-04-22T16:29:11.180Z,1.40
2023-04-22T16:31:37.769Z,1.45
2023-04-22T16:34:04.579Z,1.58
2023-04-22T16:36:31.086Z,1.55
2023-04-22T16:38:57.696Z,1.50
2023-04-22T16:41:24.230Z,1.50
2023-04-22T16:43:51.840Z,1.63
2023-04-22T16:46:18.433Z,2.42
2023-04-22T16:48:45.039Z,2.15
2023-04-22T16:51:11.583Z,1.65
2023-04-22T16:53:38.170Z,1.80
2023-04-22T16:56:04.862Z,1.80
2023-04-22T16:58:31.387Z,1.75
2023-04-22T17:00:57.921Z,2.30
2023-04-22T17:03:25.155Z,2.20
2023-04-22T17:05:51.767Z,1.85
2023-04-22T17:08:18.281Z,2.10
2023-04-22T17:10:45.054Z,2.03
2023-04-22T17:13:12.754Z,2.00
2023-04-22T17:15:39.564Z,2.13
2023-04-22T17:18:06.255Z,1.95
2023-04-22T17:20:32.812Z,2.38
2023-04-22T17:22:59.382Z,1.75
2023-04-22T17:25:25.902Z,2.08
2023-04-22T17:27:52.391Z,1.88
2023-04-22T17:30:19.028Z,1.70
2023-04-22T17:32:45.551Z,1.52
2023-04-22T17:35:12.101Z,2.00
2023-04-22T17:37:38.952Z,1.90
2023-04-22T17:40:07.107Z,2.20
2023-04-22T17:42:44.660Z,1.60
2023-04-22T17:45:12.208Z,1.90
2023-04-22T17:47:38.851Z,1.90
2023-04-22T17:50:05.795Z,1.77
2023-04-22T17:52:32.430Z,1.77
2023-04-22T17:55:00.035Z,2.22
2023-04-22T17:57:26.587Z,1.80
2023-04-22T17:59:53.076Z,1.90
2023-04-22T18:02:19.699Z,2.38
2023-04-22T18:04:46.387Z,2.20
2023-04-22T18:07:12.944Z,1.70
2023-04-22T18:09:39.611Z,2.63
2023-04-22T18:12:06.311Z,2.88
2023-04-22T18:14:32.892Z,2.80
2023-04-22T18:16:59.487Z,2.70
2023-04-22T18:19:26.083Z,3.10
2023-04-22T18:21:59.602Z,3.85
2023-04-22T18:24:27.349Z,3.72
2023-04-22T18:26:53.870Z,4.13
2023-04-22T18:29:20.406Z,4.22
2023-04-22T18:31:46.940Z,4.32
2023-04-22T18:34:13.476Z,5.18
2023-04-22T18:36:39.977Z,5.43
2023-04-22T18:39:06.499Z,5.85
2023-04-22T18:41:33.042Z,5.07
2023-04-22T18:43:59.534Z,5.95
2023-04-22T18:46:26.101Z,6.93
2023-04-22T18:48:52.641Z,7.63
2023-04-22T18:51:19.184Z,8.02
2023-04-22T18:53:45.823Z,7.63
2023-04-22T18:56:12.927Z,7.20
2023-04-22T18:58:39.434Z,7.75
2023-04-22T19:01:06.748Z,8.60
2023-04-22T19:03:33.427Z,9.45
2023-04-22T19:05:59.989Z,7.95
2023-04-22T19:08:26.489Z,9.13
2023-04-22T19:10:52.986Z,8.68
2023-04-22T19:13:29.355Z,8.40
2023-04-22T19:15:57.333Z,9.13
2023-04-22T19:18:24.040Z,10.05
2023-04-22T19:20:50.658Z,9.25
2023-04-22T19:23:17.303Z,9.05
2023-04-22T19:25:43.792Z,8.98
2023-04-22T19:28:10.415Z,8.10
2023-04-22T19:30:36.994Z,9.60
2023-04-22T19:33:03.639Z,8.13
2023-04-22T19:35:30.245Z,7.13
2023-04-22T19:37:56.769Z,6.78
2023-04-22T19:40:23.234Z,6.85
2023-04-22T19:42:49.685Z,7.28
2023-04-22T19:45:16.165Z,6.70
2023-04-22T19:47:42.984Z,7.03
2023-04-22T19:50:10.284Z,7.32
2023-04-22T19:52:37.059Z,7.90
2023-04-22T19:55:06.823Z,7.20
2023-04-22T20:00:01.613Z,7.28
2023-04-22T20:02:28.524Z,7.97
2023-04-22T20:04:55.264Z,8.02
2023-04-22T20:07:22.388Z,7.82
2023-04-22T20:09:50.918Z,8.68
2023-04-22T20:12:17.671Z,8.25
2023-04-22T20:14:44.239Z,6.50
2023-04-22T20:17:10.957Z,8.70
2023-04-22T20:19:37.578Z,8.50
2023-04-22T20:22:06.333Z,8.00
2023-04-22T20:24:36.578Z,8.05
2023-04-22T20:27:04.177Z,8.98
2023-04-22T20:29:30.717Z,7.07
2023-04-22T20:31:57.544Z,8.23
2023-04-22T20:34:24.261Z,7.63
2023-04-22T20:36:51.158Z,8.30
2023-04-22T20:39:18.070Z,8.55
2023-04-22T20:41:45.489Z,8.70
2023-04-22T20:44:12.014Z,7.95
2023-04-22T20:46:38.560Z,8.35
2023-04-22T20:49:05.046Z,7.50
2023-04-22T20:51:31.558Z,7.90
2023-04-22T20:53:58.073Z,8.73
2023-04-22T20:56:24.635Z,8.65
2023-04-22T20:58:51.099Z,8.82
2023-04-22T21:01:17.698Z,8.98
2023-04-22T21:03:50.443Z,8.60
2023-04-22T21:06:19.120Z,7.70
2023-04-22T21:08:50.215Z,9.02
2023-04-22T21:11:17.443Z,9.00
2023-04-22T21:13:44.355Z,8.85
2023-04-22T21:16:12.762Z,9.75
2023-04-22T21:18:42.974Z,9.40
2023-04-22T21:21:10.137Z,9.38
2023-04-22T21:23:37.139Z,8.88
2023-04-22T21:26:04.407Z,8.50
2023-04-22T21:28:31.238Z,9.07
2023-04-22T21:30:57.993Z,9.60
2023-04-22T21:33:24.568Z,8.38
2023-04-22T21:35:51.211Z,9.00
2023-04-22T21:38:17.941Z,8.95
2023-04-22T21:40:44.528Z,9.02
2023-04-22T21:43:11.122Z,10.40
2023-04-22T21:45:37.652Z,8.88
2023-04-22T21:48:04.264Z,9.40
2023-04-22T21:50:31.404Z,9.27
2023-04-22T21:52:58.409Z,8.95
2023-04-22T21:55:24.980Z,9.43
2023-04-22T21:57:51.618Z,9.38
2023-04-22T22:00:18.156Z,9.45
2023-04-22T22:02:45.859Z,8.82
2023-04-22T22:05:15.150Z,10.10
2023-04-22T22:07:42.601Z,9.05
2023-04-22T22:10:12.284Z,9.98
2023-04-22T22:12:38.792Z,9.80
2023-04-22T22:15:05.944Z,10.57
2023-04-22T22:17:32.510Z,9.60
2023-04-22T22:19:59.082Z,9.60
2023-04-22T22:22:25.722Z,10.98
2023-04-22T22:24:52.390Z,10.45
2023-04-22T22:27:19.300Z,10.25
2023-04-22T22:29:45.798Z,10.75
2023-04-22T22:32:12.677Z,10.80
2023-04-22T22:34:39.438Z,10.63
2023-04-22T22:37:06.129Z,11.07
2023-04-22T22:39:32.792Z,10.02
2023-04-22T22:41:59.339Z,11.50
2023-04-22T22:44:25.878Z,11.27
2023-04-22T22:46:52.549Z,11.38
2023-04-22T22:49:19.064Z,10.90
2023-04-22T22:51:45.665Z,9.95
2023-04-22T22:54:12.229Z,10.85
2023-04-22T22:56:38.762Z,10.88
2023-04-22T22:59:05.327Z,10.80
2023-04-22T23:01:32.089Z,10.90
2023-04-22T23:03:58.995Z,10.40
2023-04-22T23:06:25.683Z,10.70
2023-04-22T23:08:52.235Z,11.88
2023-04-22T23:11:18.887Z,10.05
2023-04-22T23:13:45.436Z,10.07
2023-04-22T23:16:12.084Z,10.23
2023-04-22T23:18:39.540Z,10.38
2023-04-22T23:23:51.006Z,10.02
2023-04-22T23:26:17.761Z,10.45
2023-04-22T23:28:44.660Z,11.13
2023-04-22T23:31:17.156Z,11.57
2023-04-22T23:33:45.304Z,11.20
2023-04-22T23:36:14.371Z,11.63
2023-04-22T23:38:41.004Z,11.32
2023-04-22T23:41:07.540Z,11.07
2023-04-22T23:43:34.063Z,11.73
2023-04-22T23:46:00.646Z,11.93
2023-04-22T23:48:27.187Z,11.35
2023-04-22T23:50:53.760Z,11.60
2023-04-22T23:53:20.295Z,11.27
2023-04-22T23:55:47.116Z,11.15
2023-04-22T23:58:13.828Z,12.02
